Time;durP1;ratioP1;P1;durP2;ratioP2;P2;SDS_P1;SDS_P2;PMS_P1;PMS_P2;Temp;Humidity;BMP_temperature;BMP_pressure;BME280_temperature;BME280_humidity;BME280_pressure;Samples;Min_cycle;Max_cycle;Signal;HPM_P1;HPM_P2
2021/09/10 00:00:15;;;;;;;13.50;6.87;;;;;;;;;;4986429;28;20228;-84
2021/09/10 00:02:43;;;;;;;12.47;6.00;;;;;;;;;;4969886;28;20262;-84
2021/09/10 00:05:11;;;;;;;15.73;6.37;;;;;;;;;;4968029;28;20260;-85
2021/09/10 00:07:38;;;;;;;11.33;6.57;;;;;;;;;;4972011;28;20321;-84
2021/09/10 00:10:08;;;;;;;12.13;6.70;;;;;;;;;;4967946;28;20479;-83
2021/09/10 00:12:35;;;;;;;18.40;6.60;;;;;;;;;;4965999;28;20225;-82
2021/09/10 00:15:02;;;;;;;10.07;6.47;;;;;;;;;;4968934;28;20201;-84
2021/09/10 00:17:29;;;;;;;11.70;6.30;;;;;;;;;;4978085;28;20225;-84
2021/09/10 00:19:57;;;;;;;12.83;6.40;;;;;;;;;;4976940;28;20243;-84
2021/09/10 00:22:24;;;;;;;10.93;6.97;;;;;;;;;;4975455;28;20197;-82
2021/09/10 00:24:51;;;;;;;11.63;6.33;;;;;;;;;;4984764;28;20272;-83
2021/09/10 00:27:20;;;;;;;10.40;6.17;;;;;;;;;;4975693;28;20267;-83
2021/09/10 00:29:48;;;;;;;13.83;6.50;;;;;;;;;;4974247;28;20288;-83
2021/09/10 00:32:15;;;;;;;13.80;6.40;;;;;;;;;;4978445;28;20201;-83
2021/09/10 00:34:42;;;;;;;10.17;6.30;;;;;;;;;;4975761;28;20642;-83
2021/09/10 00:37:09;;;;;;;12.10;6.77;;;;;;;;;;4983507;28;20260;-84
2021/09/10 00:39:37;;;;;;;15.00;6.20;;;;;;;;;;4982632;28;20546;-84
2021/09/10 00:42:04;;;;;;;10.27;6.10;;;;;;;;;;4981626;28;20266;-84
2021/09/10 00:44:33;;;;;;;14.07;6.87;;;;;;;;;;4974216;28;20206;-84
2021/09/10 00:47:00;;;;;;;11.30;6.80;;;;;;;;;;4977800;28;20216;-83
2021/09/10 00:49:27;;;;;;;12.50;6.33;;;;;;;;;;4973970;28;20595;-84
2021/09/10 00:51:54;;;;;;;13.47;6.27;;;;;;;;;;4973890;28;20256;-85
2021/09/10 00:54:21;;;;;;;12.73;7.07;;;;;;;;;;4976997;28;20262;-83
2021/09/10 00:56:48;;;;;;;11.10;7.00;;;;;;;;;;4972876;28;20211;-84
2021/09/10 00:59:16;;;;;;;13.43;6.70;;;;;;;;;;4981920;28;20221;-84
2021/09/10 01:01:45;;;;;;;12.40;7.07;;;;;;;;;;4973485;28;20655;-84
2021/09/10 01:04:12;;;;;;;13.13;7.07;;;;;;;;;;4969377;28;20297;-84
2021/09/10 01:06:42;;;;;;;15.33;6.60;;;;;;;;;;4973187;28;20205;-84
2021/09/10 01:09:10;;;;;;;12.50;6.53;;;;;;;;;;4994883;28;20261;-85
2021/09/10 01:11:37;;;;;;;12.27;6.63;;;;;;;;;;4990438;28;20232;-84
2021/09/10 01:14:05;;;;;;;12.83;6.93;;;;;;;;;;4986660;28;20907;-83
2021/09/10 01:16:32;;;;;;;12.83;7.33;;;;;;;;;;4971788;28;20683;-83
2021/09/10 01:19:01;;;;;;;11.00;7.10;;;;;;;;;;4971213;28;20275;-84
2021/09/10 01:21:28;;;;;;;10.53;6.80;;;;;;;;;;4971111;28;20212;-83
2021/09/10 01:23:55;;;;;;;12.07;6.87;;;;;;;;;;4976200;28;20627;-83
2021/09/10 01:26:24;;;;;;;11.23;6.67;;;;;;;;;;4973156;28;20240;-84
2021/09/10 01:28:51;;;;;;;9.93;6.47;;;;;;;;;;4973403;28;20256;-84
2021/09/10 01:31:22;;;;;;;13.33;6.93;;;;;;;;;;4977909;28;20201;-84
2021/09/10 01:33:50;;;;;;;15.17;6.70;;;;;;;;;;4974685;28;20288;-83
2021/09/10 01:36:18;;;;;;;10.40;6.53;;;;;;;;;;4977868;28;20609;-83
2021/09/10 01:38:45;;;;;;;13.43;7.00;;;;;;;;;;4970584;28;20308;-83
2021/09/10 01:41:12;;;;;;;12.37;6.43;;;;;;;;;;4977421;28;20193;-83
2021/09/10 01:43:41;;;;;;;9.87;6.57;;;;;;;;;;4977678;28;20201;-83
2021/09/10 01:46:08;;;;;;;15.70;7.13;;;;;;;;;;4974835;28;20595;-84
2021/09/10 01:48:35;;;;;;;18.97;8.10;;;;;;;;;;4972683;28;20352;-83
2021/09/10 01:51:02;;;;;;;16.60;7.33;;;;;;;;;;4967468;28;20288;-83
2021/09/10 01:53:32;;;;;;;12.37;6.70;;;;;;;;;;4978446;28;20705;-84
2021/09/10 01:56:00;;;;;;;13.83;6.43;;;;;;;;;;4972840;28;21020;-83
2021/09/10 01:58:27;;;;;;;11.43;7.10;;;;;;;;;;4973082;28;20244;-84
2021/09/10 02:00:55;;;;;;;14.07;7.23;;;;;;;;;;4978768;28;20742;-84
2021/09/10 02:03:22;;;;;;;15.67;7.10;;;;;;;;;;4979568;28;20244;-84
2021/09/10 02:05:50;;;;;;;11.90;6.73;;;;;;;;;;4968755;28;20215;-84
2021/09/10 02:08:17;;;;;;;12.90;7.20;;;;;;;;;;4972345;28;20838;-85
2021/09/10 02:10:44;;;;;;;11.67;6.90;;;;;;;;;;4975111;28;20280;-85
2021/09/10 02:13:11;;;;;;;13.03;7.80;;;;;;;;;;4971862;28;20319;-85
2021/09/10 02:15:38;;;;;;;13.73;6.93;;;;;;;;;;4976237;28;20984;-85
2021/09/10 02:18:10;;;;;;;12.77;6.53;;;;;;;;;;4974735;28;20300;-85
2021/09/10 02:20:37;;;;;;;12.10;6.93;;;;;;;;;;4970346;28;20235;-84
2021/09/10 02:23:04;;;;;;;14.00;7.20;;;;;;;;;;4973272;28;20209;-84
2021/09/10 02:25:32;;;;;;;12.13;7.37;;;;;;;;;;4971897;28;20292;-84
2021/09/10 02:27:59;;;;;;;13.27;7.70;;;;;;;;;;4974220;28;20352;-84
2021/09/10 02:30:26;;;;;;;15.37;7.60;;;;;;;;;;4970870;28;20213;-84
2021/09/10 02:32:53;;;;;;;15.53;7.23;;;;;;;;;;4975071;28;20296;-84
2021/09/10 02:35:22;;;;;;;13.73;7.00;;;;;;;;;;4972525;28;20243;-85
2021/09/10 02:37:49;;;;;;;18.37;7.97;;;;;;;;;;4971192;28;20257;-85
2021/09/10 02:40:16;;;;;;;12.33;7.30;;;;;;;;;;4972389;28;20302;-85
2021/09/10 02:42:43;;;;;;;12.60;7.43;;;;;;;;;;4973597;28;20211;-85
2021/09/10 02:45:11;;;;;;;14.10;7.23;;;;;;;;;;4970407;28;20210;-83
2021/09/10 02:47:38;;;;;;;17.17;8.13;;;;;;;;;;4992269;28;20248;-84
2021/09/10 02:50:06;;;;;;;16.80;7.97;;;;;;;;;;4986232;28;20687;-86
2021/09/10 02:52:35;;;;;;;15.27;7.70;;;;;;;;;;4980496;28;20244;-85
2021/09/10 02:55:03;;;;;;;15.17;7.50;;;;;;;;;;4976867;28;20235;-84
2021/09/10 02:57:30;;;;;;;13.43;7.17;;;;;;;;;;4972302;28;20300;-85
2021/09/10 02:59:57;;;;;;;13.10;7.17;;;;;;;;;;4971896;28;20606;-85
2021/09/10 03:02:24;;;;;;;14.13;7.77;;;;;;;;;;4977240;28;20212;-85
2021/09/10 03:04:53;;;;;;;13.00;7.80;;;;;;;;;;4975801;28;20225;-86
2021/09/10 03:07:20;;;;;;;12.30;7.30;;;;;;;;;;4981238;28;20301;-85
2021/09/10 03:09:49;;;;;;;13.63;7.73;;;;;;;;;;4979965;28;20650;-85
2021/09/10 03:12:16;;;;;;;21.80;8.27;;;;;;;;;;4971256;28;20307;-86
2021/09/10 03:14:43;;;;;;;14.20;8.53;;;;;;;;;;4965345;28;20732;-85
2021/09/10 03:17:11;;;;;;;19.07;7.67;;;;;;;;;;4969715;28;20543;-82
2021/09/10 03:19:39;;;;;;;14.60;8.13;;;;;;;;;;4971726;28;20213;-83
2021/09/10 03:22:07;;;;;;;11.63;7.53;;;;;;;;;;4977167;28;20221;-83
2021/09/10 03:24:34;;;;;;;16.83;8.03;;;;;;;;;;4968036;28;20233;-83
2021/09/10 03:27:03;;;;;;;12.17;7.73;;;;;;;;;;4972988;28;20587;-83
2021/09/10 03:29:30;;;;;;;13.67;7.33;;;;;;;;;;4981294;28;20197;-84
2021/09/10 03:31:57;;;;;;;13.23;7.97;;;;;;;;;;4991670;28;20205;-82
2021/09/10 03:34:28;;;;;;;10.83;7.50;;;;;;;;;;4986952;28;20251;-83
2021/09/10 03:36:55;;;;;;;11.20;7.57;;;;;;;;;;4982479;28;20241;-84
2021/09/10 03:39:23;;;;;;;13.40;7.47;;;;;;;;;;4980212;28;20300;-83
2021/09/10 03:41:50;;;;;;;18.27;7.23;;;;;;;;;;4989252;28;20216;-83
2021/09/10 03:44:18;;;;;;;15.53;8.10;;;;;;;;;;4987581;28;20229;-83
2021/09/10 03:46:45;;;;;;;11.57;8.00;;;;;;;;;;4986966;28;20216;-83
2021/09/10 03:49:13;;;;;;;15.10;7.53;;;;;;;;;;4980012;28;20667;-82
2021/09/10 03:51:40;;;;;;;13.70;7.90;;;;;;;;;;4981888;28;20301;-84
2021/09/10 03:54:07;;;;;;;12.23;7.33;;;;;;;;;;4981392;28;20682;-83
2021/09/10 03:56:34;;;;;;;13.73;7.67;;;;;;;;;;4980849;28;20276;-83
2021/09/10 03:59:02;;;;;;;11.63;7.57;;;;;;;;;;4977410;28;20728;-83
2021/09/10 04:01:32;;;;;;;14.20;7.17;;;;;;;;;;4977600;28;20633;-83
2021/09/10 04:03:59;;;;;;;13.97;7.27;;;;;;;;;;4979480;28;20230;-84
2021/09/10 04:06:27;;;;;;;13.63;7.17;;;;;;;;;;4989246;28;20209;-84
2021/09/10 04:08:54;;;;;;;15.80;7.43;;;;;;;;;;4987556;28;20569;-83
2021/09/10 04:11:21;;;;;;;14.33;7.93;;;;;;;;;;4988273;28;20202;-84
2021/09/10 04:13:48;;;;;;;12.97;7.53;;;;;;;;;;4994122;28;20285;-83
2021/09/10 04:16:15;;;;;;;13.23;7.93;;;;;;;;;;4982603;28;20225;-85
2021/09/10 04:18:44;;;;;;;16.13;7.90;;;;;;;;;;4978879;28;20259;-83
2021/09/10 04:21:11;;;;;;;14.63;8.00;;;;;;;;;;4991418;28;20201;-85
2021/09/10 04:23:38;;;;;;;12.43;7.73;;;;;;;;;;4996381;28;20201;-83
2021/09/10 04:26:05;;;;;;;15.17;8.23;;;;;;;;;;5001932;28;20189;-83
2021/09/10 04:28:33;;;;;;;18.27;8.63;;;;;;;;;;5000594;28;20239;-83
2021/09/10 04:31:00;;;;;;;12.73;7.47;;;;;;;;;;4988056;28;20753;-84
2021/09/10 04:33:27;;;;;;;13.10;8.10;;;;;;;;;;4985241;28;20324;-85
2021/09/10 04:35:56;;;;;;;15.03;8.30;;;;;;;;;;4989545;28;20213;-83
2021/09/10 04:38:23;;;;;;;17.53;8.83;;;;;;;;;;4981898;28;20226;-84
2021/09/10 04:40:50;;;;;;;16.57;8.20;;;;;;;;;;4985182;28;20668;-85
2021/09/10 04:43:17;;;;;;;16.37;7.53;;;;;;;;;;4989770;28;20209;-84
2021/09/10 04:45:44;;;;;;;14.10;7.87;;;;;;;;;;4987304;28;20197;-85
2021/09/10 04:48:12;;;;;;;18.07;8.13;;;;;;;;;;4984851;28;20740;-85
2021/09/10 04:50:39;;;;;;;14.90;7.67;;;;;;;;;;4980940;28;20202;-85
2021/09/10 04:53:07;;;;;;;16.37;7.70;;;;;;;;;;4984176;28;20236;-85
2021/09/10 04:55:35;;;;;;;12.23;7.20;;;;;;;;;;4985774;28;20257;-84
2021/09/10 04:58:02;;;;;;;14.07;7.47;;;;;;;;;;4987573;28;20237;-86
2021/09/10 05:00:29;;;;;;;15.60;7.97;;;;;;;;;;4985106;28;20228;-85
2021/09/10 05:02:56;;;;;;;13.93;7.20;;;;;;;;;;4986403;28;20209;-84
2021/09/10 05:05:24;;;;;;;17.57;7.63;;;;;;;;;;4980017;28;20884;-85
2021/09/10 05:07:53;;;;;;;14.57;7.40;;;;;;;;;;4978105;28;20222;-85
2021/09/10 05:10:22;;;;;;;12.10;7.97;;;;;;;;;;4981181;28;20209;-85
2021/09/10 05:12:49;;;;;;;11.30;7.63;;;;;;;;;;4978010;28;20198;-85
2021/09/10 05:15:16;;;;;;;10.60;7.10;;;;;;;;;;4979224;28;20228;-84
2021/09/10 05:17:44;;;;;;;16.67;7.93;;;;;;;;;;4980373;28;20592;-84
2021/09/10 05:20:12;;;;;;;16.37;7.87;;;;;;;;;;4969438;28;20213;-85
2021/09/10 05:22:39;;;;;;;10.33;7.20;;;;;;;;;;4975562;28;20217;-84
2021/09/10 05:25:07;;;;;;;16.40;7.60;;;;;;;;;;4980318;28;20216;-86
2021/09/10 05:27:38;;;;;;;12.40;7.70;;;;;;;;;;4976978;28;20221;-86
2021/09/10 05:30:06;;;;;;;13.60;7.50;;;;;;;;;;4972966;28;20221;-85
2021/09/10 05:32:33;;;;;;;10.43;7.30;;;;;;;;;;4977806;28;20215;-84
2021/09/10 05:35:01;;;;;;;12.77;6.83;;;;;;;;;;4977903;28;20245;-84
2021/09/10 05:37:28;;;;;;;10.07;6.87;;;;;;;;;;4978992;28;20224;-85
2021/09/10 05:39:55;;;;;;;12.33;7.20;;;;;;;;;;4977352;28;20202;-85
2021/09/10 05:42:23;;;;;;;14.30;7.03;;;;;;;;;;4975868;28;20597;-85
2021/09/10 05:44:51;;;;;;;12.90;7.00;;;;;;;;;;4976458;28;20208;-86
2021/09/10 05:47:18;;;;;;;15.20;7.23;;;;;;;;;;4978867;28;20241;-86
2021/09/10 05:49:47;;;;;;;15.17;7.57;;;;;;;;;;4977651;28;20239;-86
2021/09/10 05:52:15;;;;;;;15.67;7.47;;;;;;;;;;4975750;28;20653;-85
2021/09/10 05:54:42;;;;;;;13.77;7.03;;;;;;;;;;4978666;28;20220;-85
2021/09/10 05:57:09;;;;;;;15.90;7.80;;;;;;;;;;4978743;28;20260;-85
2021/09/10 05:59:36;;;;;;;13.70;7.50;;;;;;;;;;4978474;28;20263;-85
2021/09/10 06:02:07;;;;;;;13.73;7.47;;;;;;;;;;4990408;28;20186;-83
2021/09/10 06:04:37;;;;;;;16.07;6.97;;;;;;;;;;5002313;28;20245;-84
2021/09/10 06:07:04;;;;;;;13.07;7.40;;;;;;;;;;4998962;28;20319;-85
2021/09/10 06:09:31;;;;;;;16.83;7.60;;;;;;;;;;4978033;28;20200;-85
2021/09/10 06:12:01;;;;;;;15.93;6.87;;;;;;;;;;4973332;28;21093;-85
2021/09/10 06:14:29;;;;;;;13.83;7.57;;;;;;;;;;4976661;28;20705;-85
2021/09/10 06:16:56;;;;;;;12.30;7.53;;;;;;;;;;4977537;28;20300;-85
2021/09/10 06:19:24;;;;;;;14.63;8.07;;;;;;;;;;4973043;28;20340;-85
2021/09/10 06:21:52;;;;;;;13.73;7.73;;;;;;;;;;4971560;28;20222;-85
2021/09/10 06:24:20;;;;;;;13.63;7.47;;;;;;;;;;4971433;28;20252;-85
2021/09/10 06:26:47;;;;;;;17.73;8.60;;;;;;;;;;4980656;28;20219;-85
2021/09/10 06:29:15;;;;;;;15.10;8.50;;;;;;;;;;4973296;28;20713;-86
2021/09/10 06:31:42;;;;;;;18.83;9.00;;;;;;;;;;4975168;28;20304;-86
2021/09/10 06:34:20;;;;;;;18.60;8.60;;;;;;;;;;4973872;28;20221;-85
2021/09/10 06:36:49;;;;;;;14.37;8.10;;;;;;;;;;4977005;28;20213;-85
2021/09/10 06:39:16;;;;;;;20.67;8.60;;;;;;;;;;4970911;28;20589;-85
2021/09/10 06:41:45;;;;;;;17.10;8.13;;;;;;;;;;4964246;28;21710;-86
2021/09/10 06:44:12;;;;;;;16.50;8.47;;;;;;;;;;4966984;28;20241;-85
2021/09/10 06:46:40;;;;;;;16.03;8.50;;;;;;;;;;4967719;28;20294;-86
2021/09/10 06:49:07;;;;;;;19.73;9.20;;;;;;;;;;4972911;28;20249;-85
2021/09/10 06:51:35;;;;;;;19.53;8.77;;;;;;;;;;4967758;28;20201;-86
2021/09/10 06:54:06;;;;;;;15.30;8.00;;;;;;;;;;4964936;28;20224;-85
2021/09/10 06:56:33;;;;;;;13.10;8.27;;;;;;;;;;4963353;28;20221;-85
2021/09/10 06:59:00;;;;;;;19.27;8.70;;;;;;;;;;4963034;28;20272;-86
2021/09/10 07:01:28;;;;;;;13.80;8.40;;;;;;;;;;4966790;28;21150;-85
2021/09/10 07:03:56;;;;;;;16.83;8.20;;;;;;;;;;4969953;28;20206;-86
2021/09/10 07:06:23;;;;;;;15.73;8.30;;;;;;;;;;4964178;28;20236;-87
2021/09/10 07:08:50;;;;;;;18.27;9.40;;;;;;;;;;4966770;28;20233;-86
2021/09/10 07:11:19;;;;;;;15.60;9.37;;;;;;;;;;4964529;28;20245;-86
2021/09/10 07:13:49;;;;;;;20.33;9.10;;;;;;;;;;4972321;28;20224;-86
2021/09/10 07:16:18;;;;;;;15.80;9.40;;;;;;;;;;4968670;28;20257;-86
2021/09/10 07:18:46;;;;;;;20.20;8.83;;;;;;;;;;4979363;28;20710;-86
2021/09/10 07:21:13;;;;;;;18.03;9.53;;;;;;;;;;4974927;28;20213;-86
2021/09/10 07:23:41;;;;;;;21.27;9.13;;;;;;;;;;4981346;28;20296;-86
2021/09/10 07:26:08;;;;;;;18.23;9.17;;;;;;;;;;4977653;28;20385;-86
2021/09/10 07:28:37;;;;;;;15.43;9.23;;;;;;;;;;4978810;28;20245;-86
2021/09/10 07:31:05;;;;;;;14.60;8.17;;;;;;;;;;4965949;28;20575;-87
2021/09/10 07:33:32;;;;;;;16.73;9.30;;;;;;;;;;4976340;28;20666;-86
2021/09/10 07:35:59;;;;;;;15.20;8.93;;;;;;;;;;4981579;28;20316;-86
2021/09/10 07:38:26;;;;;;;13.83;8.50;;;;;;;;;;4979288;28;20287;-87
2021/09/10 07:40:54;;;;;;;20.93;8.63;;;;;;;;;;4986512;28;20190;-86
2021/09/10 07:43:21;;;;;;;14.70;8.47;;;;;;;;;;4996759;28;20245;-85
2021/09/10 07:45:49;;;;;;;18.47;8.90;;;;;;;;;;5002368;28;20237;-85
2021/09/10 07:48:17;;;;;;;22.47;9.00;;;;;;;;;;4983471;28;20230;-86
2021/09/10 07:50:44;;;;;;;13.97;8.10;;;;;;;;;;4982176;28;20307;-86
2021/09/10 07:53:11;;;;;;;17.77;8.17;;;;;;;;;;4974967;28;20236;-86
2021/09/10 07:55:38;;;;;;;17.67;8.13;;;;;;;;;;4982408;28;20226;-86
2021/09/10 07:58:06;;;;;;;24.10;8.07;;;;;;;;;;4974925;28;20364;-86
2021/09/10 08:00:33;;;;;;;13.00;7.50;;;;;;;;;;4973879;28;20209;-86
2021/09/10 08:03:01;;;;;;;14.93;8.00;;;;;;;;;;4979908;28;20269;-86
2021/09/10 08:05:29;;;;;;;15.50;7.23;;;;;;;;;;4974979;28;20233;-86
2021/09/10 08:07:56;;;;;;;15.67;7.13;;;;;;;;;;4974363;28;20284;-85
2021/09/10 08:10:23;;;;;;;13.33;6.67;;;;;;;;;;4981157;28;20918;-86
2021/09/10 08:12:50;;;;;;;17.07;6.73;;;;;;;;;;4978506;28;20205;-86
2021/09/10 08:15:19;;;;;;;12.03;7.23;;;;;;;;;;4964526;28;20221;-86
2021/09/10 08:17:46;;;;;;;16.27;6.97;;;;;;;;;;4969286;28;20717;-86
2021/09/10 08:20:15;;;;;;;20.50;6.97;;;;;;;;;;4969018;28;20659;-86
2021/09/10 08:22:43;;;;;;;15.90;7.10;;;;;;;;;;4976834;28;20206;-85
2021/09/10 08:25:11;;;;;;;17.20;7.43;;;;;;;;;;4977535;28;20202;-85
2021/09/10 08:27:38;;;;;;;15.37;6.87;;;;;;;;;;4967543;28;20236;-87
2021/09/10 08:30:06;;;;;;;15.70;7.27;;;;;;;;;;4971441;28;20205;-85
2021/09/10 08:32:34;;;;;;;10.27;6.73;;;;;;;;;;4970034;28;20228;-86
2021/09/10 08:35:01;;;;;;;14.60;6.73;;;;;;;;;;4970347;28;20289;-86
2021/09/10 08:37:31;;;;;;;13.90;6.80;;;;;;;;;;4971523;28;20292;-86
2021/09/10 08:39:59;;;;;;;13.37;6.90;;;;;;;;;;4967498;28;20592;-86
2021/09/10 08:42:26;;;;;;;12.63;6.63;;;;;;;;;;4985383;28;20226;-85
2021/09/10 08:44:53;;;;;;;12.97;5.97;;;;;;;;;;4982872;28;20264;-86
2021/09/10 08:47:20;;;;;;;16.77;6.93;;;;;;;;;;4984866;28;20268;-86
2021/09/10 08:49:48;;;;;;;15.60;6.20;;;;;;;;;;4978863;28;20229;-86
2021/09/10 08:52:15;;;;;;;13.93;6.27;;;;;;;;;;4973600;28;20227;-86
2021/09/10 08:54:44;;;;;;;12.37;6.40;;;;;;;;;;4978947;28;20574;-86
2021/09/10 08:57:12;;;;;;;9.23;5.77;;;;;;;;;;4978900;28;20292;-86
2021/09/10 08:59:39;;;;;;;10.13;6.83;;;;;;;;;;4974059;28;20268;-86
2021/09/10 09:02:06;;;;;;;18.97;6.53;;;;;;;;;;4995371;28;20209;-86
2021/09/10 09:04:35;;;;;;;15.47;6.03;;;;;;;;;;4992205;28;20221;-85
2021/09/10 09:07:04;;;;;;;10.20;6.47;;;;;;;;;;4984072;28;20682;-87
2021/09/10 09:09:39;;;;;;;11.63;6.40;;;;;;;;;;4994033;28;20221;-87
2021/09/10 09:12:28;;;;;;;11.97;6.70;;;;;;;;;;4990959;28;20215;-87
2021/09/10 09:14:58;;;;;;;15.27;6.20;;;;;;;;;;4979962;28;20228;-86
2021/09/10 09:17:29;;;;;;;9.90;5.70;;;;;;;;;;4991117;28;20288;-85
2021/09/10 09:20:14;;;;;;;14.43;6.57;;;;;;;;;;5000944;28;20190;-86
2021/09/10 09:22:58;;;;;;;12.13;6.23;;;;;;;;;;5000605;28;20224;-86
2021/09/10 09:25:26;;;;;;;15.67;6.33;;;;;;;;;;4997617;28;20253;-85
2021/09/10 09:27:54;;;;;;;12.67;5.57;;;;;;;;;;4977074;28;20732;-84
2021/09/10 09:30:39;;;;;;;14.13;5.67;;;;;;;;;;4980071;28;20216;-85
2021/09/10 09:33:07;;;;;;;8.43;5.50;;;;;;;;;;4994432;28;20250;-85
2021/09/10 09:35:35;;;;;;;17.93;5.03;;;;;;;;;;4988576;28;20261;-84
2021/09/10 09:38:11;;;;;;;12.80;5.30;;;;;;;;;;4980897;28;20315;-85
2021/09/10 09:40:38;;;;;;;11.00;5.50;;;;;;;;;;4987889;28;20280;-85
2021/09/10 09:43:13;;;;;;;7.97;4.83;;;;;;;;;;4985519;28;20244;-84
2021/09/10 09:45:42;;;;;;;12.50;5.13;;;;;;;;;;4986042;28;20227;-84
2021/09/10 09:48:11;;;;;;;8.47;4.37;;;;;;;;;;4991928;28;20256;-84
2021/09/10 09:50:38;;;;;;;8.43;4.67;;;;;;;;;;4974453;28;20306;-86
2021/09/10 09:53:05;;;;;;;10.07;4.90;;;;;;;;;;4986543;28;20229;-86
2021/09/10 09:55:33;;;;;;;11.60;5.43;;;;;;;;;;4988141;28;20236;-86
2021/09/10 09:58:02;;;;;;;7.83;5.23;;;;;;;;;;4980855;28;20254;-88
2021/09/10 10:00:30;;;;;;;9.53;4.83;;;;;;;;;;4986279;28;20217;-86
2021/09/10 10:03:00;;;;;;;8.30;4.57;;;;;;;;;;4989594;28;20213;-86
2021/09/10 10:05:28;;;;;;;9.47;4.77;;;;;;;;;;4984030;28;20213;-86
2021/09/10 10:07:58;;;;;;;7.50;4.10;;;;;;;;;;4994467;28;20233;-86
2021/09/10 10:10:27;;;;;;;10.63;4.00;;;;;;;;;;4984666;28;20516;-87
2021/09/10 10:12:56;;;;;;;10.80;4.30;;;;;;;;;;4977355;28;20300;-86
2021/09/10 10:15:24;;;;;;;12.93;4.00;;;;;;;;;;4978204;28;20238;-84
2021/09/10 10:17:52;;;;;;;6.70;4.17;;;;;;;;;;4974337;28;20717;-85
2021/09/10 10:20:38;;;;;;;8.00;3.87;;;;;;;;;;4973758;28;20229;-85
2021/09/10 10:23:27;;;;;;;3.80;3.03;;;;;;;;;;4973313;28;20730;-85
2021/09/10 10:26:07;;;;;;;7.67;3.30;;;;;;;;;;4976636;28;20206;-83
2021/09/10 10:28:43;;;;;;;5.90;3.33;;;;;;;;;;4972230;28;20301;-84
2021/09/10 10:31:11;;;;;;;5.70;3.40;;;;;;;;;;4975975;28;20542;-84
2021/09/10 10:33:48;;;;;;;9.00;3.60;;;;;;;;;;4970004;28;20274;-83
2021/09/10 10:36:31;;;;;;;4.17;3.10;;;;;;;;;;4976361;28;20598;-83
2021/09/10 10:39:14;;;;;;;7.10;3.50;;;;;;;;;;4973320;28;20300;-84
2021/09/10 10:41:46;;;;;;;4.87;3.30;;;;;;;;;;4970576;28;20239;-84
2021/09/10 10:44:32;;;;;;;5.53;3.40;;;;;;;;;;4987289;28;20224;-86
2021/09/10 10:47:09;;;;;;;8.50;3.10;;;;;;;;;;4986606;28;20243;-85
2021/09/10 10:49:37;;;;;;;6.30;3.43;;;;;;;;;;4989076;28;20235;-85
2021/09/10 10:52:24;;;;;;;7.03;3.77;;;;;;;;;;4988452;28;20609;-86
2021/09/10 10:55:15;;;;;;;6.00;3.53;;;;;;;;;;4989773;28;20220;-86
2021/09/10 10:57:43;;;;;;;5.47;3.60;;;;;;;;;;4997993;28;20232;-88
2021/09/10 11:00:30;;;;;;;6.50;4.27;;;;;;;;;;4998789;28;20203;-86
2021/09/10 11:03:29;;;;;;;5.27;3.27;;;;;;;;;;4992353;28;20224;-84
2021/09/10 11:06:00;;;;;;;7.60;4.47;;;;;;;;;;4979452;28;20201;-86
2021/09/10 11:08:39;;;;;;;8.10;4.10;;;;;;;;;;4969900;28;20252;-84
2021/09/10 11:11:06;;;;;;;6.60;4.77;;;;;;;;;;4979487;28;20282;-84
2021/09/10 11:13:40;;;;;;;5.80;4.10;;;;;;;;;;4975787;28;20223;-84
2021/09/10 11:16:09;;;;;;;7.70;4.33;;;;;;;;;;4962834;28;20227;-84
2021/09/10 11:18:36;;;;;;;8.13;4.30;;;;;;;;;;4972856;28;20237;-84
2021/09/10 11:21:05;;;;;;;6.67;4.33;;;;;;;;;;4970456;28;20282;-85
2021/09/10 11:23:36;;;;;;;7.10;3.63;;;;;;;;;;4978506;28;20214;-85
2021/09/10 11:26:03;;;;;;;10.77;4.20;;;;;;;;;;4976843;28;20346;-87
2021/09/10 11:28:31;;;;;;;7.87;4.00;;;;;;;;;;4981275;28;20241;-84
2021/09/10 11:31:00;;;;;;;7.43;4.00;;;;;;;;;;4982619;28;20608;-87
2021/09/10 11:33:28;;;;;;;6.63;3.83;;;;;;;;;;4993306;28;20210;-86
2021/09/10 11:35:56;;;;;;;5.87;4.00;;;;;;;;;;4996892;28;20215;-86
2021/09/10 11:38:24;;;;;;;7.40;4.40;;;;;;;;;;4989855;28;20296;-85
2021/09/10 11:40:53;;;;;;;6.03;4.07;;;;;;;;;;4987991;28;20228;-86
2021/09/10 11:43:21;;;;;;;6.03;4.13;;;;;;;;;;4993927;28;20210;-86
2021/09/10 11:45:49;;;;;;;8.53;4.20;;;;;;;;;;4978536;28;20667;-85
2021/09/10 11:48:20;;;;;;;7.37;4.07;;;;;;;;;;4980820;28;20233;-85
2021/09/10 11:50:51;;;;;;;7.77;3.93;;;;;;;;;;4987385;28;20670;-85
2021/09/10 11:53:19;;;;;;;7.00;3.80;;;;;;;;;;4989640;28;20237;-86
2021/09/10 11:55:53;;;;;;;4.87;3.40;;;;;;;;;;4990433;28;20222;-86
2021/09/10 11:58:20;;;;;;;4.70;3.20;;;;;;;;;;4986529;28;20555;-85
2021/09/10 12:00:48;;;;;;;6.73;3.60;;;;;;;;;;4981811;28;20689;-86
2021/09/10 12:03:15;;;;;;;5.23;3.53;;;;;;;;;;4989131;28;20232;-85
2021/09/10 12:05:43;;;;;;;6.63;3.30;;;;;;;;;;4994636;28;20212;-88
2021/09/10 12:08:13;;;;;;;5.27;3.60;;;;;;;;;;4987299;28;20262;-86
2021/09/10 12:10:41;;;;;;;7.57;3.70;;;;;;;;;;4991528;28;20213;-86
2021/09/10 12:13:09;;;;;;;6.23;3.40;;;;;;;;;;4991029;28;20232;-87
2021/09/10 12:15:37;;;;;;;6.43;3.23;;;;;;;;;;4984189;28;20217;-86
2021/09/10 12:18:08;;;;;;;7.07;4.07;;;;;;;;;;4984260;28;20667;-86
2021/09/10 12:20:35;;;;;;;6.17;3.70;;;;;;;;;;4992693;28;20210;-86
2021/09/10 12:23:04;;;;;;;6.80;4.00;;;;;;;;;;4977846;28;20217;-86
2021/09/10 12:25:44;;;;;;;7.00;3.80;;;;;;;;;;4983840;28;20293;-86
2021/09/10 12:28:13;;;;;;;7.40;4.03;;;;;;;;;;4984184;28;20222;-86
2021/09/10 12:30:41;;;;;;;9.73;4.50;;;;;;;;;;4985578;28;20268;-86
2021/09/10 12:33:09;;;;;;;7.50;4.50;;;;;;;;;;4983225;28;20234;-86
2021/09/10 12:35:37;;;;;;;6.83;4.60;;;;;;;;;;4991331;28;20220;-86
2021/09/10 12:38:06;;;;;;;5.57;4.10;;;;;;;;;;5000494;28;20227;-86
2021/09/10 12:40:35;;;;;;;6.27;4.13;;;;;;;;;;4990928;28;20579;-87
2021/09/10 12:43:03;;;;;;;5.17;3.77;;;;;;;;;;4992898;28;20882;-86
2021/09/10 12:45:30;;;;;;;6.27;4.20;;;;;;;;;;4985915;28;20206;-86
2021/09/10 12:47:59;;;;;;;6.00;3.97;;;;;;;;;;4985107;28;20230;-86
2021/09/10 12:50:27;;;;;;;4.60;2.83;;;;;;;;;;4988644;28;20733;-86
2021/09/10 12:52:54;;;;;;;4.40;2.80;;;;;;;;;;4979121;28;20264;-85
2021/09/10 12:55:23;;;;;;;4.23;2.60;;;;;;;;;;4977327;28;20214;-85
2021/09/10 12:57:50;;;;;;;4.90;2.80;;;;;;;;;;4985241;28;20288;-86
2021/09/10 13:00:18;;;;;;;5.97;3.20;;;;;;;;;;4977602;28;20609;-86
2021/09/10 13:02:45;;;;;;;5.23;2.87;;;;;;;;;;4985930;28;20221;-85
2021/09/10 13:05:13;;;;;;;4.00;3.20;;;;;;;;;;4985011;28;20233;-86
2021/09/10 13:07:42;;;;;;;4.20;3.30;;;;;;;;;;4979810;28;20293;-84
2021/09/10 13:10:10;;;;;;;5.83;3.63;;;;;;;;;;4982667;28;20292;-84
2021/09/10 13:12:39;;;;;;;13.43;3.87;;;;;;;;;;4981720;28;20225;-84
2021/09/10 13:15:06;;;;;;;9.10;3.97;;;;;;;;;;4973035;28;20210;-84
2021/09/10 13:17:34;;;;;;;5.23;4.10;;;;;;;;;;4985830;28;20233;-85
2021/09/10 13:20:01;;;;;;;8.73;4.40;;;;;;;;;;4977500;28;20214;-84
2021/09/10 13:22:28;;;;;;;6.30;4.07;;;;;;;;;;4975810;28;20292;-84
2021/09/10 13:24:55;;;;;;;6.30;4.00;;;;;;;;;;4979002;28;20694;-84
2021/09/10 13:27:23;;;;;;;5.10;3.97;;;;;;;;;;4982387;28;20228;-85
2021/09/10 13:29:51;;;;;;;8.60;3.40;;;;;;;;;;4979257;28;20348;-83
2021/09/10 13:32:18;;;;;;;4.93;3.63;;;;;;;;;;4986476;28;20220;-84
2021/09/10 13:34:46;;;;;;;5.73;3.50;;;;;;;;;;4979964;28;20282;-85
2021/09/10 13:37:13;;;;;;;7.70;3.97;;;;;;;;;;4974358;28;20299;-84
2021/09/10 13:39:41;;;;;;;6.03;3.90;;;;;;;;;;4983296;28;20737;-83
2021/09/10 13:42:08;;;;;;;7.77;4.10;;;;;;;;;;4981135;28;20244;-83
2021/09/10 13:44:35;;;;;;;7.30;3.63;;;;;;;;;;4969649;28;20765;-83
2021/09/10 13:47:04;;;;;;;5.77;3.60;;;;;;;;;;4973885;28;20201;-83
2021/09/10 13:49:31;;;;;;;6.67;4.20;;;;;;;;;;4972809;28;20888;-84
2021/09/10 13:51:58;;;;;;;5.90;3.43;;;;;;;;;;4971658;28;20253;-84
2021/09/10 13:54:26;;;;;;;5.83;3.73;;;;;;;;;;4979985;28;20216;-86
2021/09/10 13:56:53;;;;;;;5.80;3.70;;;;;;;;;;4971410;28;20989;-84
2021/09/10 13:59:22;;;;;;;10.73;4.57;;;;;;;;;;4972104;28;20253;-85
2021/09/10 14:01:51;;;;;;;11.17;4.60;;;;;;;;;;4980503;28;20256;-85
2021/09/10 14:04:20;;;;;;;21.03;6.20;;;;;;;;;;4979319;28;20219;-86
2021/09/10 14:06:47;;;;;;;17.40;5.50;;;;;;;;;;4985430;28;20197;-85
2021/09/10 14:09:14;;;;;;;16.87;4.53;;;;;;;;;;4981095;28;20213;-85
2021/09/10 14:11:41;;;;;;;11.40;4.80;;;;;;;;;;4974303;28;20245;-85
2021/09/10 14:14:09;;;;;;;12.10;4.30;;;;;;;;;;4994581;28;20288;-85
2021/09/10 14:16:37;;;;;;;9.77;4.00;;;;;;;;;;5000164;28;20214;-84
2021/09/10 14:19:04;;;;;;;10.17;3.93;;;;;;;;;;4995498;28;20264;-84
2021/09/10 14:21:32;;;;;;;7.00;3.60;;;;;;;;;;4973580;28;20244;-83
2021/09/10 14:24:00;;;;;;;7.37;3.30;;;;;;;;;;4972868;28;20292;-84
2021/09/10 14:26:27;;;;;;;5.40;3.43;;;;;;;;;;4972941;28;20240;-84
2021/09/10 14:28:54;;;;;;;10.43;3.80;;;;;;;;;;4977543;28;20320;-84
2021/09/10 14:31:21;;;;;;;8.97;3.60;;;;;;;;;;4971961;28;20921;-83
2021/09/10 14:33:49;;;;;;;9.77;3.37;;;;;;;;;;4975964;28;20292;-85
2021/09/10 14:36:16;;;;;;;5.40;3.30;;;;;;;;;;4980462;28;20300;-83
2021/09/10 14:38:44;;;;;;;9.30;4.00;;;;;;;;;;4977352;28;20312;-84
2021/09/10 14:41:12;;;;;;;5.50;3.60;;;;;;;;;;4977612;28;20729;-84